PWSweather.com
Personal Weather Stations
Station Observations
KCTCOLEB1
Sandy Brook, Colebrook, CT 06021

Sandy BrookColebrook, CT 06021

Lat: 42.0018, Lon: -73.0825

Elevation: 935

Station Type: Davis Vantage Pro2 + Solar + UV

Latest ConditionsUpdated 4:50:01 AM EDT Tuesday, Oct 16, 2018
Currently Today's Max Today's Min Today's Average
Temperature 41.7°F5.4°C 56.3°F13.5°C 41.7°F5.4°C 48.0°F8.9°C
Dew Point 35.0°F1.7°C 54.3°F12.4°C 35.0°F1.7°C 44.2°F6.8°C
Winds 1.2 mph NNE1.9 kmh NNE 4.6 mph -7.4 kmh - - 2.0 mph 3.2 kmh
Wind Gusts 3.5 mph5.6 kmh 12.7 mph20.4 kmh - -
Humidity 77% 95% 76% 87%
Pressure 29.99 in1015.6 mb 29.99 in1015.6 mb 29.83 in1010.2 mb -
Precipitation - 0.07 in1.8 mm - -
Hour Temp Dew Point Humidity Winds Wind Gusts Pressure Precip Precip Rate Daily Precip Total
04:50 AM 41.7°F5.4°C 35.0°F1.7°C 77% 1.2 mph NNE1.9 kmh NNE 3.5 mph5.6 kmh 29.99 in1015.6 mb - 0.00 in0.0 mm 0.07 in1.8 mm
04:40 AM 41.8°F5.4°C 35.5°F1.9°C 78% 1.2 mph W1.9 kmh W 8.1 mph13.0 kmh 29.99 in1015.6 mb - 0.00 in0.0 mm 0.07 in1.8 mm
04:30 AM 42.1°F5.6°C 35.7°F2.1°C 78% 1.2 mph NNE1.9 kmh NNE 3.5 mph5.6 kmh 29.98 in1015.2 mb - 0.00 in0.0 mm 0.07 in1.8 mm
04:20 AM 42.3°F5.7°C 35.6°F2.0°C 77% 2.3 mph NE3.7 kmh NE 3.5 mph5.6 kmh 29.97 in1014.9 mb - 0.00 in0.0 mm 0.07 in1.8 mm
04:10 AM 42.5°F5.8°C 35.5°F1.9°C 76% 3.5 mph NNW5.6 kmh NNW 12.7 mph20.4 kmh 29.96 in1014.6 mb - 0.00 in0.0 mm 0.07 in1.8 mm
04:00 AM 43.1°F6.2°C 37.0°F2.8°C 79% 1.2 mph E1.9 kmh E 1.2 mph1.9 kmh 29.95 in1014.2 mb - 0.00 in0.0 mm 0.07 in1.8 mm
03:50 AM 43.7°F6.5°C 37.6°F3.1°C 79% 1.2 mph N1.9 kmh N 2.3 mph3.7 kmh 29.96 in1014.6 mb - 0.00 in0.0 mm 0.07 in1.8 mm
03:40 AM 44.3°F6.8°C 38.8°F3.8°C 81% 1.2 mph N1.9 kmh N 2.3 mph3.7 kmh 29.96 in1014.6 mb - 0.00 in0.0 mm 0.07 in1.8 mm
03:30 AM 44.9°F7.2°C 39.7°F4.3°C 82% 3.5 mph N5.6 kmh N 10.4 mph16.7 kmh 29.95 in1014.2 mb - 0.00 in0.0 mm 0.07 in1.8 mm
03:20 AM 45.4°F7.4°C 40.2°F4.6°C 82% 4.6 mph NE7.4 kmh NE 6.9 mph11.1 kmh 29.95 in1014.2 mb - 0.00 in0.0 mm 0.07 in1.8 mm
03:10 AM 45.7°F7.6°C 40.8°F4.9°C 83% 3.5 mph N5.6 kmh N 5.8 mph9.3 kmh 29.94 in1013.9 mb - 0.00 in0.0 mm 0.07 in1.8 mm
03:00 AM 46.0°F7.8°C 41.1°F5.1°C 83% 2.3 mph N3.7 kmh N 3.5 mph5.6 kmh 29.93 in1013.5 mb - 0.00 in0.0 mm 0.07 in1.8 mm
02:50 AM 46.3°F7.9°C 41.4°F5.2°C 83% 2.3 mph NNE3.7 kmh NNE 4.6 mph7.4 kmh 29.92 in1013.2 mb - 0.00 in0.0 mm 0.07 in1.8 mm
02:40 AM 46.5°F8.1°C 41.9°F5.5°C 84% 2.3 mph NE3.7 kmh NE 2.3 mph3.7 kmh 29.92 in1013.2 mb - 0.00 in0.0 mm 0.07 in1.8 mm
02:30 AM 46.9°F8.3°C 42.9°F6.1°C 86% 2.3 mph NE3.7 kmh NE 8.1 mph13.0 kmh 29.91 in1012.9 mb - 0.00 in0.0 mm 0.07 in1.8 mm
02:20 AM 47.3°F8.5°C 43.9°F6.6°C 88% 3.5 mph N5.6 kmh N 6.9 mph11.1 kmh 29.91 in1012.9 mb - 0.00 in0.0 mm 0.07 in1.8 mm
02:10 AM 48.0°F8.9°C 45.2°F7.3°C 90% 1.2 mph NW1.9 kmh NW 3.5 mph5.6 kmh 29.90 in1012.5 mb - 0.00 in0.0 mm 0.07 in1.8 mm
02:00 AM 48.9°F9.4°C 47.0°F8.3°C 93% 2.3 mph N3.7 kmh N 3.5 mph5.6 kmh 29.89 in1012.2 mb - 0.00 in0.0 mm 0.07 in1.8 mm
01:50 AM 49.5°F9.7°C 47.8°F8.8°C 94% 1.2 mph S1.9 kmh S 5.8 mph9.3 kmh 29.89 in1012.2 mb - 0.00 in0.0 mm 0.07 in1.8 mm
01:40 AM 49.9°F9.9°C 48.2°F9.0°C 94% Calm Calm -- 29.89 in1012.2 mb - 0.00 in0.0 mm 0.07 in1.8 mm
01:30 AM 50.3°F10.2°C 48.7°F9.3°C 94% 1.2 mph NE1.9 kmh NE 2.3 mph3.7 kmh 29.88 in1011.9 mb - 0.00 in0.0 mm 0.07 in1.8 mm
01:20 AM 50.8°F10.4°C 49.1°F9.5°C 94% 1.2 mph N1.9 kmh N 3.5 mph5.6 kmh 29.87 in1011.5 mb - 0.00 in0.0 mm 0.07 in1.8 mm
01:10 AM 51.4°F10.8°C 49.8°F9.9°C 94% 2.3 mph N3.7 kmh N 9.2 mph14.8 kmh 29.87 in1011.5 mb - 0.00 in0.0 mm 0.07 in1.8 mm
01:00 AM 52.1°F11.2°C 50.4°F10.2°C 94% 3.5 mph N5.6 kmh N 3.5 mph5.6 kmh 29.87 in1011.5 mb - 0.00 in0.0 mm 0.07 in1.8 mm
12:50 AM 52.7°F11.5°C 51.0°F10.6°C 94% 1.2 mph NW1.9 kmh NW 3.5 mph5.6 kmh 29.86 in1011.2 mb - 0.00 in0.0 mm 0.07 in1.8 mm
12:40 AM 53.4°F11.9°C 51.7°F10.9°C 94% 3.5 mph NNE5.6 kmh NNE 3.5 mph5.6 kmh 29.85 in1010.8 mb - 0.01 in0.3 mm 0.07 in1.8 mm
12:30 AM 54.2°F12.3°C 52.8°F11.6°C 95% 3.5 mph N5.6 kmh N 5.8 mph9.3 kmh 29.85 in1010.8 mb - 0.01 in0.3 mm 0.06 in1.5 mm
12:20 AM 55.1°F12.8°C 53.7°F12.1°C 95% 1.2 mph NNE1.9 kmh NNE 3.5 mph5.6 kmh 29.85 in1010.8 mb - 0.03 in0.8 mm 0.06 in1.5 mm
12:10 AM 55.6°F13.1°C 53.9°F12.2°C 94% 1.2 mph WNW1.9 kmh WNW 2.3 mph3.7 kmh 29.84 in1010.5 mb - 0.03 in0.8 mm 0.03 in0.8 mm
12:00 AM 56.3°F13.5°C 54.3°F12.4°C 93% Calm Calm 2.3 mph3.7 kmh 29.83 in1010.2 mb - 0.04 in1.0 mm 0.04 in1.0 mm